Eyota, Minnesota
Current Conditions -  °F | °C
As of 12:13 AM on Thursday 29 Jan 2015 (Local Time) from K9MN Reporting Station
Overcast Overcast  
Wind Chill: 26°   Ceiling: 300
Heat Index: 31°   Visibility: 1.5mi
Dew Point: 31°   Wind: 6mph
Humidity: 98%   Direction: 310°NW
Pressure: 29.82"   Gusts: NA
Location:  43.99°N, 92.23°W
Report Text: K9MN 290613Z AUTO 31005KT 1 1/2SM OVC003 00/M01 A2982 RMK AO1 T10041007
Loading
Personal Weather Stations






























Interactive Weather Map New forecast layout! Learn more

10-Day Weather Forecast

Advertisements
Track Severe Weather on mobile